sensor_id;sensor_type;location;lat;lon;timestamp;P1;durP1;ratioP1;P2;durP2;ratioP2
63286;SDS011;49410;55.708;37.522;2023-03-23T00:00:03;6.43;;;2.83;;
63286;SDS011;49410;55.708;37.522;2023-03-23T00:02:33;5.60;;;2.13;;
63286;SDS011;49410;55.708;37.522;2023-03-23T00:05:03;6.65;;;2.67;;
63286;SDS011;49410;55.708;37.522;2023-03-23T00:07:32;8.57;;;3.53;;
63286;SDS011;49410;55.708;37.522;2023-03-23T00:09:58;5.82;;;2.50;;
63286;SDS011;49410;55.708;37.522;2023-03-23T00:12:27;6.82;;;2.45;;
63286;SDS011;49410;55.708;37.522;2023-03-23T00:15:05;5.95;;;2.92;;
63286;SDS011;49410;55.708;37.522;2023-03-23T00:17:33;5.95;;;2.22;;
63286;SDS011;49410;55.708;37.522;2023-03-23T00:19:59;6.72;;;3.25;;
63286;SDS011;49410;55.708;37.522;2023-03-23T00:22:26;6.80;;;2.83;;
63286;SDS011;49410;55.708;37.522;2023-03-23T00:24:53;5.70;;;2.33;;
63286;SDS011;49410;55.708;37.522;2023-03-23T00:27:19;7.07;;;3.08;;
63286;SDS011;49410;55.708;37.522;2023-03-23T00:29:49;8.05;;;3.35;;
63286;SDS011;49410;55.708;37.522;2023-03-23T00:32:19;8.80;;;2.67;;
63286;SDS011;49410;55.708;37.522;2023-03-23T00:34:54;7.07;;;3.30;;
63286;SDS011;49410;55.708;37.522;2023-03-23T00:37:20;6.38;;;2.88;;
63286;SDS011;49410;55.708;37.522;2023-03-23T00:39:46;5.50;;;2.28;;
63286;SDS011;49410;55.708;37.522;2023-03-23T00:42:14;7.05;;;3.03;;
63286;SDS011;49410;55.708;37.522;2023-03-23T00:44:41;7.13;;;3.08;;
63286;SDS011;49410;55.708;37.522;2023-03-23T00:47:08;6.97;;;3.25;;
63286;SDS011;49410;55.708;37.522;2023-03-23T00:49:35;6.20;;;2.67;;
63286;SDS011;49410;55.708;37.522;2023-03-23T00:52:01;6.18;;;2.30;;
63286;SDS011;49410;55.708;37.522;2023-03-23T00:54:28;6.47;;;2.90;;
63286;SDS011;49410;55.708;37.522;2023-03-23T00:56:54;9.23;;;2.75;;
63286;SDS011;49410;55.708;37.522;2023-03-23T00:59:20;6.20;;;3.00;;
63286;SDS011;49410;55.708;37.522;2023-03-23T01:01:46;7.60;;;2.72;;
63286;SDS011;49410;55.708;37.522;2023-03-23T01:04:12;6.43;;;3.20;;
63286;SDS011;49410;55.708;37.522;2023-03-23T01:06:40;6.00;;;3.13;;
63286;SDS011;49410;55.708;37.522;2023-03-23T01:09:08;6.78;;;2.42;;
63286;SDS011;49410;55.708;37.522;2023-03-23T01:11:35;6.70;;;3.13;;
63286;SDS011;49410;55.708;37.522;2023-03-23T01:14:02;5.40;;;2.17;;
63286;SDS011;49410;55.708;37.522;2023-03-23T01:16:30;6.90;;;2.63;;
63286;SDS011;49410;55.708;37.522;2023-03-23T01:18:55;6.57;;;2.65;;
63286;SDS011;49410;55.708;37.522;2023-03-23T01:21:21;7.68;;;3.00;;
63286;SDS011;49410;55.708;37.522;2023-03-23T01:23:47;6.47;;;2.58;;
63286;SDS011;49410;55.708;37.522;2023-03-23T01:26:14;7.57;;;2.80;;
63286;SDS011;49410;55.708;37.522;2023-03-23T01:28:43;6.70;;;3.15;;
63286;SDS011;49410;55.708;37.522;2023-03-23T01:31:10;6.57;;;3.53;;
63286;SDS011;49410;55.708;37.522;2023-03-23T01:33:40;7.45;;;2.70;;
63286;SDS011;49410;55.708;37.522;2023-03-23T01:36:08;6.85;;;3.08;;
63286;SDS011;49410;55.708;37.522;2023-03-23T01:38:41;6.50;;;3.08;;
63286;SDS011;49410;55.708;37.522;2023-03-23T01:41:07;7.40;;;3.42;;
63286;SDS011;49410;55.708;37.522;2023-03-23T01:43:32;5.93;;;2.40;;
63286;SDS011;49410;55.708;37.522;2023-03-23T01:45:58;5.10;;;2.13;;
63286;SDS011;49410;55.708;37.522;2023-03-23T01:48:25;6.72;;;3.45;;
63286;SDS011;49410;55.708;37.522;2023-03-23T01:51:02;6.25;;;2.97;;
63286;SDS011;49410;55.708;37.522;2023-03-23T01:53:34;7.22;;;2.90;;
63286;SDS011;49410;55.708;37.522;2023-03-23T01:56:21;6.03;;;2.53;;
63286;SDS011;49410;55.708;37.522;2023-03-23T01:58:51;6.55;;;2.45;;
63286;SDS011;49410;55.708;37.522;2023-03-23T02:01:18;7.03;;;2.60;;
63286;SDS011;49410;55.708;37.522;2023-03-23T02:03:46;7.22;;;3.10;;
63286;SDS011;49410;55.708;37.522;2023-03-23T02:06:13;6.30;;;3.08;;
63286;SDS011;49410;55.708;37.522;2023-03-23T02:08:40;7.03;;;2.65;;
63286;SDS011;49410;55.708;37.522;2023-03-23T02:11:19;6.65;;;2.92;;
63286;SDS011;49410;55.708;37.522;2023-03-23T02:13:46;6.85;;;2.80;;
63286;SDS011;49410;55.708;37.522;2023-03-23T02:41:26;5.80;;;2.50;;
63286;SDS011;49410;55.708;37.522;2023-03-23T02:43:55;7.55;;;3.03;;
63286;SDS011;49410;55.708;37.522;2023-03-23T02:46:22;7.70;;;3.45;;
63286;SDS011;49410;55.708;37.522;2023-03-23T02:48:50;7.45;;;2.58;;
63286;SDS011;49410;55.708;37.522;2023-03-23T02:51:21;6.78;;;2.80;;
63286;SDS011;49410;55.708;37.522;2023-03-23T02:53:49;6.43;;;2.90;;
63286;SDS011;49410;55.708;37.522;2023-03-23T02:56:18;6.22;;;2.17;;
63286;SDS011;49410;55.708;37.522;2023-03-23T02:58:44;6.70;;;3.15;;
63286;SDS011;49410;55.708;37.522;2023-03-23T03:03:51;6.60;;;3.55;;
63286;SDS011;49410;55.708;37.522;2023-03-23T03:06:27;7.93;;;2.97;;
63286;SDS011;49410;55.708;37.522;2023-03-23T03:11:46;8.40;;;3.53;;
63286;SDS011;49410;55.708;37.522;2023-03-23T03:14:21;5.93;;;2.60;;
63286;SDS011;49410;55.708;37.522;2023-03-23T03:17:04;8.40;;;3.17;;
63286;SDS011;49410;55.708;37.522;2023-03-23T03:19:40;7.40;;;2.88;;
63286;SDS011;49410;55.708;37.522;2023-03-23T03:22:11;6.85;;;3.33;;
63286;SDS011;49410;55.708;37.522;2023-03-23T03:24:38;7.38;;;2.90;;
63286;SDS011;49410;55.708;37.522;2023-03-23T03:27:11;6.93;;;3.28;;
63286;SDS011;49410;55.708;37.522;2023-03-23T03:29:42;7.90;;;3.17;;
63286;SDS011;49410;55.708;37.522;2023-03-23T03:32:11;6.80;;;2.67;;
63286;SDS011;49410;55.708;37.522;2023-03-23T03:34:39;8.85;;;3.65;;
63286;SDS011;49410;55.708;37.522;2023-03-23T03:37:05;8.18;;;3.60;;
63286;SDS011;49410;55.708;37.522;2023-03-23T03:39:31;10.52;;;2.78;;
63286;SDS011;49410;55.708;37.522;2023-03-23T03:42:00;7.45;;;3.45;;
63286;SDS011;49410;55.708;37.522;2023-03-23T03:44:26;10.38;;;3.47;;
63286;SDS011;49410;55.708;37.522;2023-03-23T03:46:52;8.65;;;3.75;;
63286;SDS011;49410;55.708;37.522;2023-03-23T03:49:17;8.73;;;2.85;;
63286;SDS011;49410;55.708;37.522;2023-03-23T03:51:43;8.57;;;3.60;;
63286;SDS011;49410;55.708;37.522;2023-03-23T03:54:09;7.47;;;3.03;;
63286;SDS011;49410;55.708;37.522;2023-03-23T03:56:35;9.18;;;3.65;;
63286;SDS011;49410;55.708;37.522;2023-03-23T03:59:05;5.85;;;2.70;;
63286;SDS011;49410;55.708;37.522;2023-03-23T04:01:34;8.45;;;3.60;;
63286;SDS011;49410;55.708;37.522;2023-03-23T04:04:01;8.20;;;3.42;;
63286;SDS011;49410;55.708;37.522;2023-03-23T04:06:27;6.80;;;3.03;;
63286;SDS011;49410;55.708;37.522;2023-03-23T04:08:54;9.18;;;4.03;;
63286;SDS011;49410;55.708;37.522;2023-03-23T04:11:20;9.55;;;3.60;;
63286;SDS011;49410;55.708;37.522;2023-03-23T04:13:46;9.93;;;3.58;;
63286;SDS011;49410;55.708;37.522;2023-03-23T04:16:11;9.48;;;3.83;;
63286;SDS011;49410;55.708;37.522;2023-03-23T04:18:37;9.52;;;3.97;;
63286;SDS011;49410;55.708;37.522;2023-03-23T04:21:04;8.68;;;3.92;;
63286;SDS011;49410;55.708;37.522;2023-03-23T04:23:32;8.77;;;4.28;;
63286;SDS011;49410;55.708;37.522;2023-03-23T04:26:00;8.48;;;3.85;;
63286;SDS011;49410;55.708;37.522;2023-03-23T04:28:26;12.63;;;4.80;;
63286;SDS011;49410;55.708;37.522;2023-03-23T04:30:53;10.70;;;3.72;;
63286;SDS011;49410;55.708;37.522;2023-03-23T04:33:19;9.05;;;4.28;;
63286;SDS011;49410;55.708;37.522;2023-03-23T04:35:46;9.05;;;4.00;;
63286;SDS011;49410;55.708;37.522;2023-03-23T04:38:13;9.88;;;3.78;;
63286;SDS011;49410;55.708;37.522;2023-03-23T04:40:40;10.73;;;4.40;;
63286;SDS011;49410;55.708;37.522;2023-03-23T04:43:05;8.88;;;3.60;;
63286;SDS011;49410;55.708;37.522;2023-03-23T04:45:32;10.55;;;4.88;;
63286;SDS011;49410;55.708;37.522;2023-03-23T04:47:57;9.15;;;3.70;;
63286;SDS011;49410;55.708;37.522;2023-03-23T04:50:24;8.63;;;4.55;;
63286;SDS011;49410;55.708;37.522;2023-03-23T04:52:51;8.57;;;4.00;;
63286;SDS011;49410;55.708;37.522;2023-03-23T04:55:17;13.65;;;4.97;;
63286;SDS011;49410;55.708;37.522;2023-03-23T04:57:43;10.20;;;4.88;;
63286;SDS011;49410;55.708;37.522;2023-03-23T05:00:09;9.85;;;5.13;;
63286;SDS011;49410;55.708;37.522;2023-03-23T05:02:39;10.45;;;4.80;;
63286;SDS011;49410;55.708;37.522;2023-03-23T05:05:10;12.10;;;4.40;;
63286;SDS011;49410;55.708;37.522;2023-03-23T05:07:39;11.02;;;4.93;;
63286;SDS011;49410;55.708;37.522;2023-03-23T05:10:05;10.10;;;4.43;;
63286;SDS011;49410;55.708;37.522;2023-03-23T05:12:31;11.07;;;4.63;;
63286;SDS011;49410;55.708;37.522;2023-03-23T05:14:56;10.80;;;4.60;;
63286;SDS011;49410;55.708;37.522;2023-03-23T05:17:22;11.88;;;4.68;;
63286;SDS011;49410;55.708;37.522;2023-03-23T05:19:52;10.90;;;4.82;;
63286;SDS011;49410;55.708;37.522;2023-03-23T05:22:17;10.40;;;4.80;;
63286;SDS011;49410;55.708;37.522;2023-03-23T05:24:45;9.57;;;4.20;;
63286;SDS011;49410;55.708;37.522;2023-03-23T05:27:12;10.60;;;4.63;;
63286;SDS011;49410;55.708;37.522;2023-03-23T05:29:37;11.43;;;5.05;;
63286;SDS011;49410;55.708;37.522;2023-03-23T05:32:06;10.05;;;5.40;;
63286;SDS011;49410;55.708;37.522;2023-03-23T05:34:32;12.57;;;5.20;;
63286;SDS011;49410;55.708;37.522;2023-03-23T05:36:59;12.10;;;4.90;;
63286;SDS011;49410;55.708;37.522;2023-03-23T05:39:24;10.20;;;4.72;;
63286;SDS011;49410;55.708;37.522;2023-03-23T05:41:50;10.20;;;4.90;;
63286;SDS011;49410;55.708;37.522;2023-03-23T05:44:15;11.90;;;5.30;;
63286;SDS011;49410;55.708;37.522;2023-03-23T05:46:41;10.52;;;4.88;;
63286;SDS011;49410;55.708;37.522;2023-03-23T05:49:06;11.25;;;5.38;;
63286;SDS011;49410;55.708;37.522;2023-03-23T05:51:32;16.00;;;5.10;;
63286;SDS011;49410;55.708;37.522;2023-03-23T05:53:58;11.45;;;5.75;;
63286;SDS011;49410;55.708;37.522;2023-03-23T05:56:24;11.82;;;4.95;;
63286;SDS011;49410;55.708;37.522;2023-03-23T05:58:49;13.00;;;5.80;;
63286;SDS011;49410;55.708;37.522;2023-03-23T06:01:15;11.77;;;5.13;;
63286;SDS011;49410;55.708;37.522;2023-03-23T06:03:40;11.25;;;5.65;;
63286;SDS011;49410;55.708;37.522;2023-03-23T06:06:06;12.38;;;5.20;;
63286;SDS011;49410;55.708;37.522;2023-03-23T06:08:36;12.98;;;5.10;;
63286;SDS011;49410;55.708;37.522;2023-03-23T06:11:03;13.45;;;4.93;;
63286;SDS011;49410;55.708;37.522;2023-03-23T06:13:29;10.82;;;4.90;;
63286;SDS011;49410;55.708;37.522;2023-03-23T06:15:56;15.05;;;5.97;;
63286;SDS011;49410;55.708;37.522;2023-03-23T06:18:24;11.07;;;5.18;;
63286;SDS011;49410;55.708;37.522;2023-03-23T06:20:50;15.75;;;5.60;;
63286;SDS011;49410;55.708;37.522;2023-03-23T06:23:17;12.93;;;5.85;;
63286;SDS011;49410;55.708;37.522;2023-03-23T06:25:42;10.95;;;5.05;;
63286;SDS011;49410;55.708;37.522;2023-03-23T06:28:09;13.88;;;5.03;;
63286;SDS011;49410;55.708;37.522;2023-03-23T06:30:36;12.23;;;5.38;;
63286;SDS011;49410;55.708;37.522;2023-03-23T06:33:02;10.32;;;5.07;;
63286;SDS011;49410;55.708;37.522;2023-03-23T06:35:30;11.88;;;6.07;;
63286;SDS011;49410;55.708;37.522;2023-03-23T06:37:57;13.65;;;5.28;;
63286;SDS011;49410;55.708;37.522;2023-03-23T06:40:26;10.32;;;5.18;;
63286;SDS011;49410;55.708;37.522;2023-03-23T06:42:52;14.50;;;5.13;;
63286;SDS011;49410;55.708;37.522;2023-03-23T06:45:17;11.75;;;4.85;;
63286;SDS011;49410;55.708;37.522;2023-03-23T06:47:45;10.23;;;5.55;;
63286;SDS011;49410;55.708;37.522;2023-03-23T06:50:14;14.50;;;5.20;;
63286;SDS011;49410;55.708;37.522;2023-03-23T06:52:40;11.88;;;5.32;;
63286;SDS011;49410;55.708;37.522;2023-03-23T06:55:06;10.65;;;5.03;;
63286;SDS011;49410;55.708;37.522;2023-03-23T06:57:31;10.93;;;5.53;;
63286;SDS011;49410;55.708;37.522;2023-03-23T06:59:57;14.35;;;5.90;;
63286;SDS011;49410;55.708;37.522;2023-03-23T07:02:22;12.00;;;5.18;;
63286;SDS011;49410;55.708;37.522;2023-03-23T07:04:48;12.30;;;4.78;;
63286;SDS011;49410;55.708;37.522;2023-03-23T07:07:13;13.60;;;5.20;;
63286;SDS011;49410;55.708;37.522;2023-03-23T07:09:43;11.30;;;4.82;;
63286;SDS011;49410;55.708;37.522;2023-03-23T07:12:08;11.32;;;5.45;;
63286;SDS011;49410;55.708;37.522;2023-03-23T07:14:34;11.45;;;4.97;;
63286;SDS011;49410;55.708;37.522;2023-03-23T07:17:00;11.68;;;4.88;;
63286;SDS011;49410;55.708;37.522;2023-03-23T07:19:26;11.77;;;5.03;;
63286;SDS011;49410;55.708;37.522;2023-03-23T07:21:51;11.43;;;4.93;;
63286;SDS011;49410;55.708;37.522;2023-03-23T07:24:16;11.13;;;5.15;;
63286;SDS011;49410;55.708;37.522;2023-03-23T07:26:43;11.07;;;5.30;;
63286;SDS011;49410;55.708;37.522;2023-03-23T07:29:09;12.73;;;5.07;;
63286;SDS011;49410;55.708;37.522;2023-03-23T07:31:34;10.90;;;4.68;;
63286;SDS011;49410;55.708;37.522;2023-03-23T07:34:00;12.50;;;4.32;;
63286;SDS011;49410;55.708;37.522;2023-03-23T07:36:26;11.77;;;5.20;;
63286;SDS011;49410;55.708;37.522;2023-03-23T07:38:51;14.25;;;4.82;;
63286;SDS011;49410;55.708;37.522;2023-03-23T07:41:17;10.18;;;4.63;;
63286;SDS011;49410;55.708;37.522;2023-03-23T07:43:42;13.25;;;4.97;;
63286;SDS011;49410;55.708;37.522;2023-03-23T07:46:08;11.25;;;4.55;;
63286;SDS011;49410;55.708;37.522;2023-03-23T07:48:33;11.40;;;4.93;;
63286;SDS011;49410;55.708;37.522;2023-03-23T07:50:58;12.20;;;4.88;;
63286;SDS011;49410;55.708;37.522;2023-03-23T07:53:24;11.07;;;4.38;;
63286;SDS011;49410;55.708;37.522;2023-03-23T07:55:50;11.55;;;4.28;;
63286;SDS011;49410;55.708;37.522;2023-03-23T07:58:18;10.05;;;4.57;;
63286;SDS011;49410;55.708;37.522;2023-03-23T08:00:46;11.00;;;4.95;;
63286;SDS011;49410;55.708;37.522;2023-03-23T08:03:14;9.40;;;3.97;;
63286;SDS011;49410;55.708;37.522;2023-03-23T08:05:40;10.13;;;3.78;;
63286;SDS011;49410;55.708;37.522;2023-03-23T08:08:07;8.80;;;4.38;;
63286;SDS011;49410;55.708;37.522;2023-03-23T08:10:33;12.73;;;4.95;;
63286;SDS011;49410;55.708;37.522;2023-03-23T08:12:58;8.77;;;4.03;;
63286;SDS011;49410;55.708;37.522;2023-03-23T08:15:25;9.32;;;4.22;;
63286;SDS011;49410;55.708;37.522;2023-03-23T08:17:51;9.63;;;4.15;;
63286;SDS011;49410;55.708;37.522;2023-03-23T08:20:17;10.02;;;4.68;;
63286;SDS011;49410;55.708;37.522;2023-03-23T08:22:44;9.13;;;4.13;;
63286;SDS011;49410;55.708;37.522;2023-03-23T08:25:10;10.20;;;4.72;;
63286;SDS011;49410;55.708;37.522;2023-03-23T08:27:36;13.15;;;4.93;;
63286;SDS011;49410;55.708;37.522;2023-03-23T08:30:02;11.68;;;4.43;;
63286;SDS011;49410;55.708;37.522;2023-03-23T08:32:27;10.45;;;4.57;;
63286;SDS011;49410;55.708;37.522;2023-03-23T08:34:53;8.77;;;4.43;;
63286;SDS011;49410;55.708;37.522;2023-03-23T08:37:18;10.13;;;4.28;;
63286;SDS011;49410;55.708;37.522;2023-03-23T08:39:43;11.50;;;5.30;;
63286;SDS011;49410;55.708;37.522;2023-03-23T08:42:10;12.95;;;4.57;;
63286;SDS011;49410;55.708;37.522;2023-03-23T08:44:35;11.95;;;5.18;;
63286;SDS011;49410;55.708;37.522;2023-03-23T08:47:01;9.95;;;4.30;;
63286;SDS011;49410;55.708;37.522;2023-03-23T08:49:28;8.80;;;4.13;;
63286;SDS011;49410;55.708;37.522;2023-03-23T08:51:54;9.60;;;5.30;;
63286;SDS011;49410;55.708;37.522;2023-03-23T08:54:19;11.95;;;4.68;;
63286;SDS011;49410;55.708;37.522;2023-03-23T08:56:45;11.00;;;4.82;;
63286;SDS011;49410;55.708;37.522;2023-03-23T08:59:11;9.27;;;4.57;;
63286;SDS011;49410;55.708;37.522;2023-03-23T09:01:36;9.65;;;4.43;;
63286;SDS011;49410;55.708;37.522;2023-03-23T09:04:02;8.45;;;4.10;;
63286;SDS011;49410;55.708;37.522;2023-03-23T09:06:27;9.35;;;4.45;;
63286;SDS011;49410;55.708;37.522;2023-03-23T09:08:53;10.85;;;4.97;;
63286;SDS011;49410;55.708;37.522;2023-03-23T09:11:20;11.77;;;4.75;;
63286;SDS011;49410;55.708;37.522;2023-03-23T09:13:45;10.63;;;5.07;;
63286;SDS011;49410;55.708;37.522;2023-03-23T09:16:11;9.63;;;4.78;;
63286;SDS011;49410;55.708;37.522;2023-03-23T09:18:36;13.23;;;4.65;;
63286;SDS011;49410;55.708;37.522;2023-03-23T09:21:02;11.82;;;4.82;;
63286;SDS011;49410;55.708;37.522;2023-03-23T09:23:28;10.82;;;5.05;;
63286;SDS011;49410;55.708;37.522;2023-03-23T09:25:53;9.70;;;4.35;;
63286;SDS011;49410;55.708;37.522;2023-03-23T09:28:19;13.32;;;4.93;;
63286;SDS011;49410;55.708;37.522;2023-03-23T09:30:44;9.48;;;4.07;;
63286;SDS011;49410;55.708;37.522;2023-03-23T09:33:10;10.55;;;5.45;;
63286;SDS011;49410;55.708;37.522;2023-03-23T09:35:36;11.25;;;4.68;;
63286;SDS011;49410;55.708;37.522;2023-03-23T09:38:03;11.98;;;4.78;;
63286;SDS011;49410;55.708;37.522;2023-03-23T09:43:14;11.05;;;4.82;;
63286;SDS011;49410;55.708;37.522;2023-03-23T09:46:00;10.02;;;3.80;;
63286;SDS011;49410;55.708;37.522;2023-03-23T09:51:08;10.77;;;4.22;;
63286;SDS011;49410;55.708;37.522;2023-03-23T09:53:38;10.50;;;4.10;;
63286;SDS011;49410;55.708;37.522;2023-03-23T09:56:08;10.43;;;4.25;;
63286;SDS011;49410;55.708;37.522;2023-03-23T10:01:26;10.25;;;4.05;;
63286;SDS011;49410;55.708;37.522;2023-03-23T10:03:55;11.40;;;4.28;;
63286;SDS011;49410;55.708;37.522;2023-03-23T10:06:22;12.07;;;4.38;;
63286;SDS011;49410;55.708;37.522;2023-03-23T10:08:52;12.77;;;4.47;;
63286;SDS011;49410;55.708;37.522;2023-03-23T10:16:42;9.50;;;4.60;;
63286;SDS011;49410;55.708;37.522;2023-03-23T10:19:25;7.32;;;3.63;;
63286;SDS011;49410;55.708;37.522;2023-03-23T10:21:56;14.95;;;4.68;;
63286;SDS011;49410;55.708;37.522;2023-03-23T10:24:26;16.30;;;4.05;;
63286;SDS011;49410;55.708;37.522;2023-03-23T10:29:19;9.40;;;3.65;;
63286;SDS011;49410;55.708;37.522;2023-03-23T10:31:47;7.95;;;4.05;;
63286;SDS011;49410;55.708;37.522;2023-03-23T10:34:17;9.90;;;3.53;;
63286;SDS011;49410;55.708;37.522;2023-03-23T10:39:26;9.50;;;3.25;;
63286;SDS011;49410;55.708;37.522;2023-03-23T10:41:52;8.88;;;3.75;;
63286;SDS011;49410;55.708;37.522;2023-03-23T10:44:21;8.23;;;3.72;;
63286;SDS011;49410;55.708;37.522;2023-03-23T10:49:20;7.78;;;3.38;;
63286;SDS011;49410;55.708;37.522;2023-03-23T10:51:56;9.85;;;3.50;;
63286;SDS011;49410;55.708;37.522;2023-03-23T10:54:27;9.45;;;4.20;;
63286;SDS011;49410;55.708;37.522;2023-03-23T10:56:53;6.43;;;3.17;;
63286;SDS011;49410;55.708;37.522;2023-03-23T10:59:26;10.38;;;3.83;;
63286;SDS011;49410;55.708;37.522;2023-03-23T11:01:53;8.00;;;3.33;;
63286;SDS011;49410;55.708;37.522;2023-03-23T11:04:20;8.45;;;3.42;;
63286;SDS011;49410;55.708;37.522;2023-03-23T11:06:46;7.80;;;3.88;;
63286;SDS011;49410;55.708;37.522;2023-03-23T11:09:15;7.28;;;3.40;;
63286;SDS011;49410;55.708;37.522;2023-03-23T11:11:43;7.55;;;3.38;;
63286;SDS011;49410;55.708;37.522;2023-03-23T11:14:33;7.22;;;3.65;;
63286;SDS011;49410;55.708;37.522;2023-03-23T11:17:03;7.95;;;3.50;;
63286;SDS011;49410;55.708;37.522;2023-03-23T11:19:33;7.60;;;3.40;;
63286;SDS011;49410;55.708;37.522;2023-03-23T11:24:33;7.63;;;3.30;;
63286;SDS011;49410;55.708;37.522;2023-03-23T11:26:59;6.75;;;2.97;;
63286;SDS011;49410;55.708;37.522;2023-03-23T11:29:25;13.40;;;3.63;;
63286;SDS011;49410;55.708;37.522;2023-03-23T11:32:12;7.35;;;3.50;;
63286;SDS011;49410;55.708;37.522;2023-03-23T11:34:41;8.75;;;3.33;;
63286;SDS011;49410;55.708;37.522;2023-03-23T11:37:28;9.68;;;3.53;;
63286;SDS011;49410;55.708;37.522;2023-03-23T11:39:55;9.15;;;3.60;;
63286;SDS011;49410;55.708;37.522;2023-03-23T11:42:22;12.43;;;3.60;;
63286;SDS011;49410;55.708;37.522;2023-03-23T11:44:52;8.98;;;3.38;;
63286;SDS011;49410;55.708;37.522;2023-03-23T11:47:30;7.93;;;3.58;;
63286;SDS011;49410;55.708;37.522;2023-03-23T11:52:24;14.60;;;4.25;;
63286;SDS011;49410;55.708;37.522;2023-03-23T11:54:56;13.05;;;3.53;;
63286;SDS011;49410;55.708;37.522;2023-03-23T11:57:23;7.70;;;3.33;;
63286;SDS011;49410;55.708;37.522;2023-03-23T11:59:49;7.40;;;3.47;;
63286;SDS011;49410;55.708;37.522;2023-03-23T12:02:35;8.65;;;3.20;;
63286;SDS011;49410;55.708;37.522;2023-03-23T12:05:26;14.32;;;3.30;;
63286;SDS011;49410;55.708;37.522;2023-03-23T12:13:02;8.02;;;3.28;;
63286;SDS011;49410;55.708;37.522;2023-03-23T12:25:45;8.00;;;3.20;;
63286;SDS011;49410;55.708;37.522;2023-03-23T12:44:15;8.80;;;3.45;;
63286;SDS011;49410;55.708;37.522;2023-03-23T12:59:53;7.53;;;3.47;;
63286;SDS011;49410;55.708;37.522;2023-03-23T13:02:05;7.18;;;3.38;;
63286;SDS011;49410;55.708;37.522;2023-03-23T13:04:39;7.55;;;3.50;;
63286;SDS011;49410;55.708;37.522;2023-03-23T13:07:06;7.68;;;3.40;;
63286;SDS011;49410;55.708;37.522;2023-03-23T13:09:50;8.20;;;3.63;;
63286;SDS011;49410;55.708;37.522;2023-03-23T13:12:16;10.90;;;3.85;;
63286;SDS011;49410;55.708;37.522;2023-03-23T13:17:26;7.90;;;3.10;;
63286;SDS011;49410;55.708;37.522;2023-03-23T13:22:33;7.57;;;2.97;;
63286;SDS011;49410;55.708;37.522;2023-03-23T13:25:13;8.00;;;3.85;;
63286;SDS011;49410;55.708;37.522;2023-03-23T13:27:38;6.57;;;2.97;;
63286;SDS011;49410;55.708;37.522;2023-03-23T13:30:04;8.85;;;3.08;;
63286;SDS011;49410;55.708;37.522;2023-03-23T13:32:42;11.32;;;3.47;;
63286;SDS011;49410;55.708;37.522;2023-03-23T13:35:13;8.40;;;3.53;;
63286;SDS011;49410;55.708;37.522;2023-03-23T13:37:44;9.70;;;2.85;;
63286;SDS011;49410;55.708;37.522;2023-03-23T13:42:50;8.25;;;3.22;;
63286;SDS011;49410;55.708;37.522;2023-03-23T13:47:44;8.25;;;3.15;;
63286;SDS011;49410;55.708;37.522;2023-03-23T13:57:48;7.30;;;3.08;;
63286;SDS011;49410;55.708;37.522;2023-03-23T14:03:01;8.02;;;3.47;;
63286;SDS011;49410;55.708;37.522;2023-03-23T14:05:37;7.32;;;3.35;;
63286;SDS011;49410;55.708;37.522;2023-03-23T14:13:04;8.90;;;3.60;;
63286;SDS011;49410;55.708;37.522;2023-03-23T14:15:37;8.68;;;3.28;;
63286;SDS011;49410;55.708;37.522;2023-03-23T14:18:05;7.82;;;3.92;;
63286;SDS011;49410;55.708;37.522;2023-03-23T14:20:32;12.73;;;3.58;;
63286;SDS011;49410;55.708;37.522;2023-03-23T14:22:58;6.90;;;3.60;;
63286;SDS011;49410;55.708;37.522;2023-03-23T14:25:30;6.72;;;3.28;;
63286;SDS011;49410;55.708;37.522;2023-03-23T14:27:57;8.18;;;3.03;;
63286;SDS011;49410;55.708;37.522;2023-03-23T14:30:24;6.55;;;3.22;;
63286;SDS011;49410;55.708;37.522;2023-03-23T14:32:51;7.30;;;3.03;;
63286;SDS011;49410;55.708;37.522;2023-03-23T14:35:20;10.52;;;3.42;;
63286;SDS011;49410;55.708;37.522;2023-03-23T14:37:46;9.32;;;3.85;;
63286;SDS011;49410;55.708;37.522;2023-03-23T14:40:14;7.20;;;3.08;;
63286;SDS011;49410;55.708;37.522;2023-03-23T14:42:41;8.80;;;4.05;;
63286;SDS011;49410;55.708;37.522;2023-03-23T14:45:09;8.02;;;3.33;;
63286;SDS011;49410;55.708;37.522;2023-03-23T14:47:42;9.15;;;3.75;;
63286;SDS011;49410;55.708;37.522;2023-03-23T14:52:48;8.23;;;3.92;;
63286;SDS011;49410;55.708;37.522;2023-03-23T14:55:18;7.88;;;3.63;;
63286;SDS011;49410;55.708;37.522;2023-03-23T14:57:46;8.25;;;3.70;;
63286;SDS011;49410;55.708;37.522;2023-03-23T15:00:32;7.55;;;3.20;;
63286;SDS011;49410;55.708;37.522;2023-03-23T15:03:00;8.05;;;4.03;;
63286;SDS011;49410;55.708;37.522;2023-03-23T15:05:30;8.82;;;3.75;;
63286;SDS011;49410;55.708;37.522;2023-03-23T15:08:47;8.65;;;3.72;;
63286;SDS011;49410;55.708;37.522;2023-03-23T15:11:03;8.23;;;3.42;;
63286;SDS011;49410;55.708;37.522;2023-03-23T15:13:32;9.15;;;3.72;;
63286;SDS011;49410;55.708;37.522;2023-03-23T15:16:07;9.50;;;4.00;;
63286;SDS011;49410;55.708;37.522;2023-03-23T15:19:04;10.05;;;3.58;;
63286;SDS011;49410;55.708;37.522;2023-03-23T15:21:45;9.50;;;4.22;;
63286;SDS011;49410;55.708;37.522;2023-03-23T15:24:46;8.90;;;3.80;;
63286;SDS011;49410;55.708;37.522;2023-03-23T15:29:31;9.18;;;3.58;;
63286;SDS011;49410;55.708;37.522;2023-03-23T15:31:57;12.80;;;4.53;;
63286;SDS011;49410;55.708;37.522;2023-03-23T15:34:29;8.65;;;3.55;;
63286;SDS011;49410;55.708;37.522;2023-03-23T15:36:57;13.68;;;4.50;;
63286;SDS011;49410;55.708;37.522;2023-03-23T15:39:24;10.40;;;3.78;;
63286;SDS011;49410;55.708;37.522;2023-03-23T15:41:51;10.55;;;4.45;;
63286;SDS011;49410;55.708;37.522;2023-03-23T15:44:22;8.05;;;3.60;;
63286;SDS011;49410;55.708;37.522;2023-03-23T15:46:52;8.45;;;3.40;;
63286;SDS011;49410;55.708;37.522;2023-03-23T15:49:27;7.65;;;3.83;;
63286;SDS011;49410;55.708;37.522;2023-03-23T15:51:52;10.07;;;4.10;;
63286;SDS011;49410;55.708;37.522;2023-03-23T15:54:18;9.93;;;3.83;;
63286;SDS011;49410;55.708;37.522;2023-03-23T15:56:43;9.45;;;3.67;;
63286;SDS011;49410;55.708;37.522;2023-03-23T15:59:09;9.60;;;4.13;;
63286;SDS011;49410;55.708;37.522;2023-03-23T16:01:36;10.63;;;3.80;;
63286;SDS011;49410;55.708;37.522;2023-03-23T16:06:34;8.80;;;3.55;;
63286;SDS011;49410;55.708;37.522;2023-03-23T16:09:01;11.70;;;4.72;;
63286;SDS011;49410;55.708;37.522;2023-03-23T16:11:28;8.93;;;4.10;;
63286;SDS011;49410;55.708;37.522;2023-03-23T16:13:55;12.45;;;4.78;;
63286;SDS011;49410;55.708;37.522;2023-03-23T16:16:33;9.48;;;3.83;;
63286;SDS011;49410;55.708;37.522;2023-03-23T16:19:02;8.55;;;3.35;;
63286;SDS011;49410;55.708;37.522;2023-03-23T16:21:27;9.05;;;3.95;;
63286;SDS011;49410;55.708;37.522;2023-03-23T16:23:53;9.23;;;3.85;;
63286;SDS011;49410;55.708;37.522;2023-03-23T16:26:19;9.68;;;4.45;;
63286;SDS011;49410;55.708;37.522;2023-03-23T16:28:45;16.17;;;3.70;;
63286;SDS011;49410;55.708;37.522;2023-03-23T16:31:10;7.97;;;3.72;;
63286;SDS011;49410;55.708;37.522;2023-03-23T16:33:36;10.25;;;4.40;;
63286;SDS011;49410;55.708;37.522;2023-03-23T16:36:02;8.00;;;3.67;;
63286;SDS011;49410;55.708;37.522;2023-03-23T16:38:28;10.85;;;4.80;;
63286;SDS011;49410;55.708;37.522;2023-03-23T16:40:53;13.55;;;4.13;;
63286;SDS011;49410;55.708;37.522;2023-03-23T16:43:19;8.93;;;4.53;;
63286;SDS011;49410;55.708;37.522;2023-03-23T16:45:45;10.48;;;5.10;;
63286;SDS011;49410;55.708;37.522;2023-03-23T16:48:12;9.10;;;3.92;;